Supercat — 12034QC — position and weather

sailwx.info

Track history (hours):
 
Tides and Currents Weather Stations Pressure Air Temp Water Temp Dewpoint Dewpoint Depression Visibility Wind Speed Wind Dir Waves Ship Positions

Supercat

Last reported at 2017-Nov-10 00:03 UTC. Time now 2017-Nov-24 05:37 UTC.
Position S 27°13' E 153°08'.
Warning: this ship's position is 14 days out of date.

Length 20 m.

Type: Passenger vessel. MMSI: 503017670.

Date/timePositionNaut miles runAvg speedWind from/ knotsBaromVisibWave heightAir tempDewpointWater temp
2017-Nov-10 00:03S 27°13' E 153°08'1 9.6
2017-Nov-09 23:59S 27°13' E 153°08'0 0.3
2017-Nov-09 22:38S 27°14' E 153°07'213.4
2017-Nov-09 22:30S 27°12' E 153°08'2 2.6
2017-Nov-09 21:44S 27°13' E 153°06'  
2017-Nov-06 02:26S 27°13' E 153°06'0 0.0
2017-Nov-06 00:27S 27°13' E 153°06'0 0.0
2017-Nov-05 07:36S 27°13' E 153°06'0 1.2
2017-Nov-05 07:30S 27°13' E 153°06'2 4.1
2017-Nov-05 07:00S 27°12' E 153°08'1 2.2
2017-Nov-05 06:30S 27°13' E 153°08'2 0.3
2017-Nov-05 00:12S 27°12' E 153°10'3 2.0
2017-Nov-04 22:39S 27°14' E 153°07'212.7
2017-Nov-04 22:30S 27°12' E 153°08'2 3.8
2017-Nov-04 21:59S 27°13' E 153°06'0 0.0
2017-Nov-04 06:18S 27°13' E 153°06'0 0.0
2017-Nov-04 06:00S 27°13' E 153°06'4 7.2
2017-Nov-04 05:30S 27°10' E 153°08'1 0.2
2017-Nov-03 22:38S 27°11' E 153°09'217.2
2017-Nov-03 22:31S 27°11' E 153°07'2 4.2
2017-Nov-03 22:00S 27°13' E 153°06'0 0.0
2017-Nov-03 07:25S 27°13' E 153°06'2 4.3
2017-Nov-03 07:00S 27°13' E 153°08'2 3.6
2017-Nov-03 06:30S 27°12' E 153°10'1 0.1
2017-Nov-02 23:58S 27°12' E 153°10'3 2.8
2017-Nov-02 22:51S 27°14' E 153°07'3 7.4
2017-Nov-02 22:30S 27°11' E 153°06'2 2.9
2017-Nov-02 21:58S 27°13' E 153°06'4 0.1
2017-Oct-31 22:57S 27°11' E 153°10'4 8.7
2017-Oct-31 22:28S 27°13' E 153°06'0 0.0
2017-Oct-31 21:58S 27°13' E 153°06'  
Track history (hours):
 
Tides and Currents Weather Stations Pressure Air Temp Water Temp Dewpoint Dewpoint Depression Visibility Wind Speed Wind Dir Waves Ship Positions

Supercat

Last reported at 2017-Nov-10 00:03 UTC. Time now 2017-Nov-24 05:37 UTC.
Position S 27°13' E 153°08'.
Warning: this ship's position is 14 days out of date.

Length 20 m.

Type: Passenger vessel. MMSI: 503017670.

Date/timePositionNaut miles runAvg speedWind from/ knotsBaromVisibWave heightAir tempDewpointWater temp
2017-Nov-10 00:03S 27°13' E 153°08'1 9.6
2017-Nov-09 23:59S 27°13' E 153°08'0 0.3
2017-Nov-09 22:38S 27°14' E 153°07'213.4
2017-Nov-09 22:30S 27°12' E 153°08'2 2.6
2017-Nov-09 21:44S 27°13' E 153°06'  
2017-Nov-06 02:26S 27°13' E 153°06'0 0.0
2017-Nov-06 00:27S 27°13' E 153°06'0 0.0
2017-Nov-05 07:36S 27°13' E 153°06'0 1.2
2017-Nov-05 07:30S 27°13' E 153°06'2 4.1
2017-Nov-05 07:00S 27°12' E 153°08'1 2.2
2017-Nov-05 06:30S 27°13' E 153°08'2 0.3
2017-Nov-05 00:12S 27°12' E 153°10'3 2.0
2017-Nov-04 22:39S 27°14' E 153°07'212.7
2017-Nov-04 22:30S 27°12' E 153°08'2 3.8
2017-Nov-04 21:59S 27°13' E 153°06'0 0.0
2017-Nov-04 06:18S 27°13' E 153°06'0 0.0
2017-Nov-04 06:00S 27°13' E 153°06'4 7.2
2017-Nov-04 05:30S 27°10' E 153°08'1 0.2
2017-Nov-03 22:38S 27°11' E 153°09'217.2
2017-Nov-03 22:31S 27°11' E 153°07'2 4.2
2017-Nov-03 22:00S 27°13' E 153°06'0 0.0
2017-Nov-03 07:25S 27°13' E 153°06'2 4.3
2017-Nov-03 07:00S 27°13' E 153°08'2 3.6
2017-Nov-03 06:30S 27°12' E 153°10'1 0.1
2017-Nov-02 23:58S 27°12' E 153°10'3 2.8
2017-Nov-02 22:51S 27°14' E 153°07'3 7.4
2017-Nov-02 22:30S 27°11' E 153°06'2 2.9
2017-Nov-02 21:58S 27°13' E 153°06'4 0.1
2017-Oct-31 22:57S 27°11' E 153°10'4 8.7
2017-Oct-31 22:28S 27°13' E 153°06'0 0.0
2017-Oct-31 21:58S 27°13' E 153°06'  

Dump ship's entire track history